Flight Track Log - Related Links

Times and Time Zones

All times are in EDT time to prevent confusion due to time zone crossing. See the DLX119 flight status page for this flight to view local times or setup timezone preferences in your user account.

Time Position Orientation Groundspeed Altitude Reporting Facility
EDT Latitude Longitude Course Direction KTS MPH feet Rate Location/Type
Mon 11:34:39 AM 41.5297 -122.5539 221° Southwest 131 151 9,700  Level Oakland Center
Mon 11:35:41 AM 41.4894 -122.5617 188° South 145 167 11,500 1,756 Climbing Oakland Center
Mon 11:36:42 AM 41.4439 -122.5628 181° South 159 183 13,300 1,754 Climbing Oakland Center
Mon 11:37:51 AM 41.3961 -122.5697 186° South 161 185 15,300 1,610 Climbing Seattle Center
Mon 11:38:45 AM 41.3542 -122.5714 182° South 162 186 16,600 1,552 Climbing Oakland Center
Mon 11:39:47 AM 41.3044 -122.5764 184° South 162 186 18,300 1,268 Climbing Oakland Center
Mon 11:40:00 AM 41.6237 -122.5800 221° Southwest  Level FlightAware Approximate
Mon 11:40:48 AM 41.2572 -122.5825 186° South 171 197 19,200  Level Oakland Center
Mon 11:41:50 AM 41.2044 -122.5878 184° South 188 216 20,200 878 Climbing Oakland Center
Mon 11:42:51 AM 41.1508 -122.5917 183° South 192 221 21,000 390 Climbing Oakland Center
Mon 11:43:53 AM 41.0922 -122.5972 184° South 210 242 21,000  Level Oakland Center
Mon 11:44:54 AM 41.0169 -122.6053 185° South 227 261 21,000  Level Oakland Center
Mon 11:45:56 AM 40.9517 -122.6072 181° South 234 269 21,000  Level Oakland Center
Mon 11:46:57 AM 40.8881 -122.6097 182° South 231 266 21,000  Level Oakland Center
Mon 11:47:59 AM 40.8233 -122.6133 182° South 235 270 21,000  Level Oakland Center
Mon 11:49:00 AM 40.7597 -122.6164 182° South 231 266 21,000  Level Oakland Center
Mon 11:50:02 AM 40.6956 -122.6189 182° South 230 265 21,000  Level Oakland Center
Mon 11:51:03 AM 40.6311 -122.6228 183° South 232 267 21,000  Level Oakland Center
Mon 11:52:05 AM 40.5539 -122.6261 182° South 231 266 21,000  Level Oakland Center
Mon 11:53:06 AM 40.4894 -122.6294 182° South 232 267 21,000  Level Oakland Center
Mon 11:54:07 AM 40.4250 -122.6331 182° South 233 268 21,000  Level Oakland Center
Mon 11:55:09 AM 40.3608 -122.6364 182° South 232 267 21,000  Level Oakland Center
Mon 11:56:10 AM 40.2969 -122.6392 182° South 232 267 21,000 634 Level Oakland Center
Mon 11:57:12 AM 40.2403 -122.6419 182° South 208 239 22,300 976 Climbing Oakland Center
Mon 11:58:13 AM 40.1886 -122.6447 182° South 190 219 23,000 341 Climbing Oakland Center
Mon 11:59:15 AM 40.1197 -122.6492 183° South 204 235 23,000  Level Oakland Center
Mon 12:00:16 PM 40.0592 -122.6522 182° South 215 247 23,000  Level Oakland Center
Mon 12:01:18 PM 39.9981 -122.6544 182° South 220 253 23,000  Level Oakland Center
Mon 12:03:20 PM 39.8750 -122.6606 182° South 223 257 23,000  Level Oakland Center
Mon 12:04:22 PM 39.8139 -122.6631 182° South 221 254 23,000  Level Oakland Center
Mon 12:05:23 PM 39.7517 -122.6661 182° South 224 258 23,000  Level Oakland Center
Mon 12:06:25 PM 39.6772 -122.6700 182° South 225 259 23,000  Level Oakland Center
Mon 12:07:26 PM 39.6158 -122.6731 182° South 223 257 23,000  Level Oakland Center
Mon 12:08:28 PM 39.5542 -122.6758 182° South 222 255 23,000  Level Oakland Center
Mon 12:09:29 PM 39.4925 -122.6792 182° South 223 257 23,000  Level Oakland Center
Mon 12:10:30 PM 39.4306 -122.6819 182° South 222 255 23,000  Level Oakland Center
Mon 12:11:32 PM 39.3700 -122.6847 182° South 220 253 23,000  Level Oakland Center
Mon 12:12:33 PM 39.3083 -122.6875 182° South 221 254 23,000  Level Oakland Center
Mon 12:13:35 PM 39.2461 -122.6911 183° South 223 257 23,000  Level Oakland Center
Mon 12:14:36 PM 39.1803 -122.6939 182° South 225 259 23,000  Level Oakland Center
Mon 12:15:37 PM 39.1178 -122.6969 182° South 225 259 23,000  Level Oakland Center
Mon 12:16:39 PM 39.0550 -122.6989 181° South 225 259 23,000 -98 Level Oakland Center
Mon 12:17:40 PM 38.9794 -122.7014 181° South 226 260 22,800 -295 Descending Oakland Center
Mon 12:18:41 PM 38.9133 -122.7053 183° South 236 272 22,400 -683 Descending Oakland Center
Mon 12:19:43 PM 38.8461 -122.7094 183° South 243 280 21,400 -976 Descending Oakland Center
Mon 12:20:44 PM 38.7753 -122.7133 182° South 252 290 20,400 -984 Descending Oakland Center
Mon 12:21:45 PM 38.7039 -122.7161 182° South 257 296 19,400 -976 Descending Oakland Center
Mon 12:22:47 PM 38.6322 -122.7197 182° South 257 296 18,400 -976 Descending Oakland Center
Mon 12:23:48 PM 38.5603 -122.7228 182° South 259 298 17,400 -1,082 Descending Oakland Center
Mon 12:24:49 PM 38.4883 -122.7250 181° South 259 298 16,200 -1,304 Descending Oakland Center
Mon 12:26:00 PM 38.4134 -122.7199 177° South  Level FlightAware Approximate
Mon 12:26:52 PM 38.3342 -122.7325 177° South 250 288 13,400  Level Oakland Center
Mon 12:27:54 PM 38.2669 -122.7372 183° South 242 278 12,200 -1,220 Descending Oakland Center
Mon 12:28:55 PM 38.2011 -122.7383 181° South 238 274 10,900 -1,171 Descending Oakland Center
Mon 12:29:57 PM 38.1339 -122.7422 183° South 242 278 9,800 -1,313 Descending Oakland Center
Mon 12:31:35 PM 38.0167 -122.7500 183° South 244 281 7,400 -1,421 Descending Northern Cal TRACON
Mon 12:32:29 PM 37.9500 -122.7333 169° South 248 285 6,200 -1,116 Descending Northern Cal TRACON
Mon 12:33:01 PM 37.9350 -122.7267 161° South 250 288 5,800 -774 Descending Oakland Center
Mon 12:34:02 PM 37.8739 -122.6872 153° Southeast 249 287 5,000 -488 Descending Oakland Center
Mon 12:35:04 PM 37.8056 -122.6472 155° Southeast 240 276 4,800 -390 Descending Oakland Center
Mon 12:36:05 PM 37.7492 -122.6147 155° Southeast 232 267 4,200 -390 Descending Oakland Center
Mon 12:37:07 PM 37.6944 -122.5833 156° South 226 260 4,000 -98 Descending Oakland Center
Mon 12:38:08 PM 37.6456 -122.5489 151° Southeast 216 249 4,000  Level Oakland Center
Mon 12:39:09 PM 37.6119 -122.5064 135° Southeast 188 216 4,000  Level Oakland Center
Mon 12:40:11 PM 37.5669 -122.4536 137° Southeast 188 216 4,000 -244 Level Oakland Center
Mon 12:41:12 PM 37.5492 -122.4056 115° Southeast 182 209 3,500 -488 Descending Oakland Center
Mon 12:42:14 PM 37.5314 -122.3419 109° East 179 206 3,000 -1,237 Descending Oakland Center
Mon 12:43:23 PM 37.5500 -122.2833 68° East 111 128 800 -1,256 Descending Northern Cal TRACON
Mon 12:44:23 PM 37.5333 -122.2667 142° Southeast 96 110 300 -500 Descending Northern Cal TRACON
Mon 12:46:00 PM 37.5119 -122.2495 148° Southeast  Level Estimated
Mon 12:53:00 PM 37.5118 -122.2495 210° Southwest  Level Estimated
Mon 12:54:00 PM 37.5119 -122.2495 330° Northwest  Level Estimated
Mon 12:55:00 PM 37.5118 -122.2495 210° Southwest  Level Estimated
Mon 12:56:00 PM 37.5119 -122.2495 330° Northwest  Level Estimated
Mon 12:57:00 PM 37.5118 -122.2495 210° Southwest  Level Estimated
Mon 12:58:00 PM 37.5119 -122.2495 330° Northwest  Level Estimated
Mon 12:59:00 PM 37.5118 -122.2495 210° Southwest  Level Estimated
Mon 01:00:00 PM 37.5119 -122.2495 330° Northwest  Level Estimated
Mon 01:01:00 PM 37.5118 -122.2495 210° Southwest  Level Estimated
Mon 01:02:00 PM 37.5119 -122.2495 330° Northwest  Level Estimated
Mon 01:03:00 PM 37.5118 -122.2495 210° Southwest  Level Estimated

Login

Don't have an account? Register now (free) for customized features, flight alerts, and more!